createdAt,value
2019-06-20T03:37:34.189Z,4.90
2019-06-20T03:38:34.384Z,4.80
2019-06-20T03:40:31.848Z,6.80
2019-06-20T03:41:31.274Z,7.40
2019-06-20T03:42:33.168Z,5.00
2019-06-20T03:43:31.420Z,6.10
2019-06-20T03:44:31.775Z,4.70
2019-06-20T03:47:03.099Z,4.70
2019-06-20T03:48:02.796Z,4.60
2019-06-20T03:49:03.193Z,5.20
2019-06-20T03:50:02.665Z,6.40
2019-06-20T03:51:02.748Z,5.50
2019-06-20T03:52:02.612Z,5.70
2019-06-20T03:53:02.566Z,6.50
2019-06-20T03:54:02.589Z,6.50
2019-06-20T03:55:02.502Z,5.30
2019-06-20T03:56:02.459Z,5.10
2019-06-20T03:57:02.421Z,4.70
2019-06-20T03:58:02.386Z,5.00
2019-06-20T03:59:02.357Z,6.10
2019-06-20T04:00:02.667Z,6.00
2019-06-20T04:01:02.284Z,5.40
2019-06-20T04:02:02.247Z,5.80
2019-06-20T04:03:02.211Z,5.30
2019-06-20T04:04:02.185Z,7.60
2019-06-20T04:05:02.147Z,6.90
2019-06-20T04:06:02.111Z,6.40
2019-06-20T04:07:02.074Z,5.30
2019-06-20T04:08:02.039Z,5.60
2019-06-20T04:09:02.014Z,5.80
2019-06-20T04:10:01.968Z,4.40
2019-06-20T04:11:01.936Z,6.60
2019-06-20T04:12:01.902Z,6.30
2019-06-20T04:13:01.867Z,5.60
2019-06-20T04:14:01.834Z,5.60
2019-06-20T04:15:17.550Z,5.30
2019-06-20T04:16:01.762Z,7.60
2019-06-20T04:17:01.731Z,6.40
2019-06-20T04:18:01.696Z,8.70
2019-06-20T04:19:01.667Z,8.70
2019-06-20T04:20:01.678Z,5.10
2019-06-20T04:21:01.591Z,7.70
2019-06-20T04:22:01.558Z,6.30
2019-06-20T04:23:01.524Z,4.80
2019-06-20T04:24:01.493Z,5.80
2019-06-20T04:25:01.454Z,8.10
2019-06-20T04:26:01.421Z,6.60
2019-06-20T04:27:01.427Z,4.70
2019-06-20T04:28:01.349Z,4.40
2019-06-20T04:29:01.362Z,6.00
2019-06-20T04:30:01.282Z,5.20
2019-06-20T04:31:01.276Z,4.90
2019-06-20T04:32:01.219Z,5.10
2019-06-20T04:33:01.181Z,5.00
2019-06-20T04:34:01.147Z,4.40
2019-06-20T04:35:01.113Z,5.20
2019-06-20T04:36:01.079Z,5.00
2019-06-20T04:37:01.043Z,6.30
2019-06-20T04:38:01.010Z,4.40
2019-06-20T04:39:00.974Z,4.30
2019-06-20T04:40:00.943Z,4.50
2019-06-20T04:41:00.903Z,4.70
2019-06-20T04:42:00.871Z,3.70
2019-06-20T04:43:00.844Z,5.80
2019-06-20T04:44:00.808Z,4.30
2019-06-20T04:45:00.773Z,5.40
2019-06-20T04:46:00.766Z,5.90
2019-06-20T04:47:00.706Z,4.80
2019-06-20T04:48:00.666Z,5.10
2019-06-20T04:49:00.637Z,6.60
2019-06-20T04:50:00.602Z,4.00
2019-06-20T04:51:00.569Z,5.30
2019-06-20T04:52:00.533Z,4.70
2019-06-20T04:53:00.495Z,4.80
2019-06-20T04:54:00.468Z,4.70
2019-06-20T04:55:00.480Z,4.40
2019-06-20T04:56:00.403Z,5.10
2019-06-20T04:57:00.367Z,3.90
2019-06-20T04:58:00.331Z,5.00
2019-06-20T04:59:00.294Z,3.60
2019-06-20T05:00:00.259Z,5.30
2019-06-20T05:01:00.226Z,4.40
2019-06-20T05:02:00.190Z,5.70
2019-06-20T05:03:00.175Z,3.70
2019-06-20T05:04:00.210Z,4.10
2019-06-20T05:05:00.098Z,3.80
2019-06-20T05:06:00.059Z,6.20
2019-06-20T05:07:00.040Z,4.60
2019-06-20T05:07:59.992Z,4.20
2019-06-20T05:09:00.236Z,5.50
2019-06-20T05:10:00.121Z,4.30
2019-06-20T05:10:59.890Z,4.90
2019-06-20T05:11:59.901Z,3.80
2019-06-20T05:12:59.813Z,6.30
2019-06-20T05:13:59.784Z,4.70
2019-06-20T05:14:59.752Z,5.10
2019-06-20T05:15:59.718Z,6.60
2019-06-20T05:16:59.683Z,5.30
2019-06-20T05:17:59.649Z,4.80
2019-06-20T05:18:59.614Z,4.40
2019-06-20T05:19:59.579Z,4.10
2019-06-20T05:20:59.549Z,3.90
2019-06-20T05:21:59.511Z,4.10
2019-06-20T05:22:59.478Z,4.80
2019-06-20T05:23:59.443Z,5.10
2019-06-20T05:24:59.407Z,4.50
2019-06-20T05:25:59.377Z,5.40
2019-06-20T05:26:59.346Z,3.80
2019-06-20T05:27:59.311Z,4.80
2019-06-20T05:28:59.277Z,3.50
2019-06-20T05:29:59.252Z,6.20
2019-06-20T05:30:59.204Z,4.40
2019-06-20T05:31:59.170Z,4.20
2019-06-20T05:32:59.174Z,4.70
2019-06-20T05:33:59.106Z,6.00
2019-06-20T05:35:02.787Z,5.70
2019-06-20T05:35:59.050Z,3.70
2019-06-20T05:36:59.040Z,3.10
2019-06-20T05:37:58.967Z,3.80
2019-06-20T05:38:58.940Z,3.90
2019-06-20T05:39:58.904Z,3.70
2019-06-20T05:40:58.870Z,3.30
2019-06-20T05:41:58.841Z,3.40
2019-06-20T05:42:58.836Z,4.40
2019-06-20T05:43:58.765Z,4.10
2019-06-20T05:44:58.732Z,4.70
2019-06-20T05:46:08.801Z,5.30
2019-06-20T05:47:12.012Z,6.10
2019-06-20T05:47:58.632Z,3.80
2019-06-20T05:48:58.598Z,3.80
2019-06-20T05:49:58.567Z,4.90
2019-06-20T05:50:58.602Z,3.40
2019-06-20T05:51:59.389Z,3.40
2019-06-20T05:52:58.489Z,4.30
2019-06-20T05:53:58.434Z,5.20
2019-06-20T05:54:58.392Z,4.60
2019-06-20T05:55:58.361Z,6.70
2019-06-20T05:56:58.329Z,4.10
2019-06-20T05:57:58.292Z,6.30
2019-06-20T05:58:58.263Z,3.90
2019-06-20T05:59:58.231Z,3.90
2019-06-20T06:00:58.197Z,4.70
2019-06-20T06:01:58.322Z,4.00
2019-06-20T06:02:58.238Z,4.60
2019-06-20T06:03:58.095Z,5.40
2019-06-20T06:04:58.065Z,5.00
2019-06-20T06:05:58.025Z,4.70
2019-06-20T06:06:58.065Z,4.10
2019-06-20T06:07:58.452Z,6.40
2019-06-20T06:08:57.926Z,4.00
2019-06-20T06:09:57.894Z,3.80
2019-06-20T06:10:57.867Z,5.30
2019-06-20T06:11:57.826Z,3.30
2019-06-20T06:12:57.794Z,4.20
2019-06-20T06:13:57.762Z,4.90
2019-06-20T06:15:00.739Z,3.60
2019-06-20T06:15:57.741Z,3.50
2019-06-20T06:16:57.659Z,5.70
2019-06-20T06:17:57.625Z,4.40
2019-06-20T06:18:57.597Z,3.30
2019-06-20T06:19:57.569Z,4.50
2019-06-20T06:20:57.523Z,4.10
2019-06-20T06:21:57.504Z,4.10
2019-06-20T06:22:57.453Z,3.80
2019-06-20T06:23:57.422Z,3.80
2019-06-20T06:24:57.393Z,3.20
2019-06-20T06:25:57.362Z,3.30
2019-06-20T06:26:59.956Z,4.40
2019-06-20T06:27:57.293Z,4.70
2019-06-20T06:28:57.263Z,5.40
2019-06-20T06:29:57.222Z,3.50
2019-06-20T06:30:57.195Z,4.10
2019-06-20T06:31:57.159Z,3.30
2019-06-20T06:32:57.126Z,3.70
2019-06-20T06:33:57.096Z,5.00
2019-06-20T06:34:57.062Z,4.90
2019-06-20T06:35:57.023Z,3.70
2019-06-20T06:36:56.995Z,3.80
2019-06-20T06:37:56.954Z,4.30
2019-06-20T06:38:56.926Z,4.80
2019-06-20T06:39:56.893Z,4.10
2019-06-20T06:40:56.856Z,4.30
2019-06-20T06:41:56.823Z,4.20
2019-06-20T06:42:56.795Z,6.10
2019-06-20T06:43:56.820Z,4.00
2019-06-20T06:44:56.760Z,4.90
2019-06-20T06:45:56.744Z,4.00
2019-06-20T06:46:59.572Z,5.60
2019-06-20T06:47:56.633Z,5.40
2019-06-20T06:48:56.603Z,4.40
2019-06-20T06:49:56.588Z,4.10
2019-06-20T06:50:56.558Z,4.90
2019-06-20T06:51:56.614Z,5.00
2019-06-20T06:52:56.487Z,4.80
2019-06-20T06:53:56.438Z,5.70
2019-06-20T06:54:56.391Z,4.60
2019-06-20T06:55:56.365Z,5.90
2019-06-20T06:56:56.339Z,4.60
2019-06-20T06:57:56.317Z,4.60
2019-06-20T06:58:56.268Z,4.10
2019-06-20T06:59:56.231Z,3.60
2019-06-20T07:00:56.216Z,4.50
2019-06-20T07:01:56.199Z,3.50
2019-06-20T07:02:56.181Z,4.00
2019-06-20T07:03:56.125Z,4.70
2019-06-20T07:04:56.070Z,4.10
2019-06-20T07:05:56.043Z,4.80
2019-06-20T07:06:56.045Z,3.40
2019-06-20T07:07:55.971Z,4.60
2019-06-20T07:08:55.972Z,5.50
2019-06-20T07:09:55.941Z,4.30
2019-06-20T07:10:55.876Z,4.00
2019-06-20T07:11:55.838Z,4.30
2019-06-20T07:12:55.803Z,4.30
2019-06-20T07:13:55.772Z,5.20
2019-06-20T07:14:55.815Z,3.90
2019-06-20T07:15:55.912Z,4.10
2019-06-20T07:17:00.179Z,4.50
2019-06-20T07:17:55.740Z,6.30
2019-06-20T07:18:55.641Z,5.10
2019-06-20T07:19:55.573Z,5.40
2019-06-20T07:20:55.567Z,6.60
2019-06-20T07:21:55.508Z,4.30
2019-06-20T07:22:55.577Z,5.00
2019-06-20T07:23:55.471Z,4.80
2019-06-20T07:24:55.504Z,4.10
2019-06-20T07:25:55.384Z,4.90
2019-06-20T07:26:55.339Z,4.10
2019-06-20T07:27:55.341Z,4.70
2019-06-20T07:28:55.280Z,5.40
2019-06-20T07:29:55.255Z,3.90
2019-06-20T07:30:55.209Z,6.10
2019-06-20T07:31:55.212Z,5.50
2019-06-20T07:32:55.155Z,5.90
2019-06-20T07:33:55.107Z,5.30
2019-06-20T07:34:55.200Z,4.00
2019-06-20T07:35:55.090Z,4.20
2019-06-20T07:36:55.015Z,5.40
2019-06-20T07:37:55.018Z,5.00
2019-06-20T07:38:54.966Z,4.90
2019-06-20T07:39:54.949Z,4.80
2019-06-20T07:40:54.951Z,4.50
2019-06-20T07:41:54.879Z,4.70
2019-06-20T07:42:54.861Z,5.90
2019-06-20T07:43:54.789Z,4.90
2019-06-20T07:44:54.809Z,5.80
2019-06-20T07:46:02.409Z,3.90
2019-06-20T07:46:54.700Z,4.30
2019-06-20T07:47:54.804Z,6.50
2019-06-20T07:48:54.645Z,5.90
2019-06-20T07:49:54.590Z,3.80
2019-06-20T07:50:54.567Z,3.90
2019-06-20T07:51:54.547Z,4.40
2019-06-20T07:53:02.040Z,4.70
2019-06-20T07:53:54.488Z,4.00
2019-06-20T07:54:54.435Z,7.40
2019-06-20T07:55:54.401Z,5.10
2019-06-20T07:56:54.365Z,4.70
2019-06-20T07:57:54.336Z,4.20
2019-06-20T07:58:54.290Z,5.20
2019-06-20T07:59:54.276Z,4.00
2019-06-20T08:00:54.232Z,5.30
2019-06-20T08:01:54.269Z,4.40
2019-06-20T08:02:54.164Z,3.70
2019-06-20T08:03:54.136Z,4.70
2019-06-20T08:04:54.124Z,5.10
2019-06-20T08:05:54.071Z,5.30
2019-06-20T08:06:54.157Z,5.30
2019-06-20T08:07:54.004Z,5.00
2019-06-20T08:08:53.976Z,4.20
2019-06-20T08:09:53.950Z,4.80
2019-06-20T08:10:53.912Z,4.70
2019-06-20T08:11:53.877Z,4.20
2019-06-20T08:12:53.876Z,3.90
2019-06-20T08:13:53.811Z,3.70
2019-06-20T08:14:53.785Z,3.80
2019-06-20T08:15:53.771Z,3.40
2019-06-20T08:16:53.719Z,3.90
2019-06-20T08:17:53.695Z,3.70
2019-06-20T08:18:53.661Z,3.00
2019-06-20T08:19:53.622Z,3.60
2019-06-20T08:20:53.591Z,4.20
2019-06-20T08:21:53.565Z,4.40
2019-06-20T08:22:53.529Z,4.90
2019-06-20T08:23:53.494Z,3.90
2019-06-20T08:24:54.875Z,3.20
2019-06-20T08:25:53.446Z,5.10
2019-06-20T08:26:53.405Z,3.70
2019-06-20T08:27:53.369Z,4.10
2019-06-20T08:29:07.375Z,3.70
2019-06-20T08:29:53.303Z,3.40
2019-06-20T08:30:53.270Z,3.50
2019-06-20T08:31:53.241Z,3.70
2019-06-20T08:32:53.220Z,3.20
2019-06-20T08:33:53.178Z,3.20
2019-06-20T08:34:53.147Z,3.00
2019-06-20T08:35:53.116Z,4.50
2019-06-20T08:36:53.086Z,2.70
2019-06-20T08:37:53.052Z,4.20
2019-06-20T08:38:53.024Z,5.70
2019-06-20T08:39:52.982Z,3.10
2019-06-20T08:40:52.955Z,2.80
2019-06-20T08:41:52.925Z,3.40
2019-06-20T08:42:52.883Z,3.10
2019-06-20T08:43:52.853Z,3.50
2019-06-20T08:44:52.840Z,3.40
2019-06-20T08:45:52.796Z,3.10
2019-06-20T08:46:52.764Z,4.30
2019-06-20T08:47:52.730Z,3.90
2019-06-20T08:48:52.696Z,4.90
2019-06-20T08:49:52.660Z,3.80
2019-06-20T08:50:52.636Z,3.00
2019-06-20T08:51:52.646Z,3.70
2019-06-20T08:52:52.574Z,3.80
2019-06-20T08:53:52.541Z,3.70
2019-06-20T08:54:52.503Z,3.10
2019-06-20T08:55:52.477Z,3.00
2019-06-20T08:56:52.510Z,3.10
2019-06-20T08:57:52.521Z,3.30
2019-06-20T08:58:52.386Z,4.40
2019-06-20T08:59:52.374Z,3.60
2019-06-20T09:00:52.435Z,3.10
2019-06-20T09:01:52.474Z,3.40
2019-06-20T09:02:52.260Z,3.40
2019-06-20T09:03:52.252Z,2.50
2019-06-20T09:04:54.810Z,3.50
2019-06-20T09:05:54.848Z,2.80
2019-06-20T09:06:53.968Z,2.80
2019-06-20T09:07:53.578Z,3.80
2019-06-20T09:08:52.075Z,3.30
2019-06-20T09:09:52.956Z,4.50
2019-06-20T09:10:54.143Z,3.70
2019-06-20T09:11:51.969Z,4.00
2019-06-20T09:12:53.682Z,3.00
2019-06-20T09:13:53.750Z,3.20
2019-06-20T09:14:52.611Z,4.30
2019-06-20T09:15:52.218Z,3.60
2019-06-20T09:16:52.323Z,3.20
2019-06-20T09:17:52.956Z,2.80
2019-06-20T09:18:53.216Z,2.80
2019-06-20T09:19:52.848Z,2.80
2019-06-20T09:20:52.688Z,3.40
2019-06-20T09:21:52.558Z,3.30
2019-06-20T09:22:52.311Z,3.10
2019-06-20T09:23:52.635Z,3.30
2019-06-20T09:24:52.057Z,3.00
2019-06-20T09:25:52.323Z,3.00
2019-06-20T09:26:52.419Z,3.10
2019-06-20T09:27:52.724Z,3.60
2019-06-20T09:28:52.673Z,2.90
2019-06-20T09:29:51.584Z,3.70
2019-06-20T09:30:52.238Z,2.60
2019-06-20T09:31:52.526Z,2.90
2019-06-20T09:32:52.255Z,3.20
2019-06-20T09:33:52.334Z,3.20
2019-06-20T09:34:51.815Z,2.70
2019-06-20T09:35:52.679Z,3.40
2019-06-20T09:50:10.270Z,3.90
2019-06-20T09:51:10.205Z,2.70
2019-06-20T09:52:10.175Z,2.90
2019-06-20T09:53:10.136Z,2.50
2019-06-20T09:54:10.107Z,3.00
2019-06-20T09:55:10.069Z,2.90
2019-06-20T09:56:10.030Z,2.80
2019-06-20T09:57:09.998Z,3.40
2019-06-20T09:58:09.969Z,2.80
2019-06-20T09:59:26.569Z,3.00
2019-06-20T10:00:10.810Z,3.70
2019-06-20T10:01:09.867Z,2.40
2019-06-20T10:02:09.837Z,3.70
2019-06-20T10:03:09.810Z,4.40
2019-06-20T10:04:09.774Z,3.40
2019-06-20T10:05:09.744Z,3.40
2019-06-20T10:06:13.883Z,3.10
2019-06-20T10:07:09.677Z,5.00
2019-06-20T10:08:09.652Z,3.00
2019-06-20T10:09:09.615Z,4.10
2019-06-20T10:10:09.579Z,4.30
2019-06-20T10:11:09.549Z,2.70
2019-06-20T10:12:09.521Z,2.70
2019-06-20T10:13:09.490Z,4.10
2019-06-20T10:14:09.457Z,3.00
2019-06-20T10:15:09.428Z,2.70
2019-06-20T10:16:09.391Z,3.10
2019-06-20T10:17:09.361Z,3.50
2019-06-20T10:18:09.340Z,3.00
2019-06-20T10:19:09.303Z,3.90
2019-06-20T10:20:09.268Z,3.70
2019-06-20T10:21:09.237Z,3.00
2019-06-20T10:22:09.208Z,3.00
2019-06-20T10:23:09.175Z,3.30
2019-06-20T10:24:09.153Z,2.60
2019-06-20T10:25:09.116Z,3.80
2019-06-20T10:26:09.104Z,3.50
2019-06-20T10:27:09.058Z,2.60
2019-06-20T10:28:09.022Z,3.50
2019-06-20T10:29:08.997Z,3.20
2019-06-20T10:30:14.435Z,3.80
2019-06-20T10:31:08.929Z,3.20
2019-06-20T10:32:08.905Z,4.20
2019-06-20T10:33:08.868Z,4.10
2019-06-20T10:34:08.838Z,3.80
2019-06-20T10:35:08.807Z,2.60
2019-06-20T10:36:08.781Z,3.90
2019-06-20T10:37:08.750Z,3.10
2019-06-20T10:38:08.717Z,4.80
2019-06-20T10:39:08.690Z,3.60
2019-06-20T10:40:08.652Z,2.70
2019-06-20T10:41:08.623Z,2.90
2019-06-20T10:42:08.595Z,3.00
2019-06-20T10:43:08.593Z,2.70
2019-06-20T10:44:08.545Z,3.90
2019-06-20T10:45:08.504Z,4.10
2019-06-20T10:46:08.475Z,3.70
2019-06-20T10:47:08.443Z,2.70
2019-06-20T10:48:08.409Z,3.60
2019-06-20T10:49:08.382Z,3.50
2019-06-20T10:50:08.349Z,3.20
2019-06-20T10:51:08.321Z,3.10
2019-06-20T10:52:08.286Z,3.00
2019-06-20T10:53:08.263Z,2.70
2019-06-20T10:54:08.234Z,3.30
2019-06-20T10:55:08.193Z,3.00
2019-06-20T10:56:08.181Z,3.40
2019-06-20T10:57:08.136Z,2.80
2019-06-20T10:58:08.105Z,2.80
2019-06-20T10:59:08.076Z,4.30
2019-06-20T11:00:08.066Z,4.20
2019-06-20T11:01:08.012Z,2.70
2019-06-20T11:02:07.982Z,3.00
2019-06-20T11:03:07.950Z,3.40
2019-06-20T11:04:07.924Z,4.40
2019-06-20T11:05:07.894Z,3.50
2019-06-20T11:06:07.864Z,4.10
2019-06-20T11:07:07.828Z,3.10
2019-06-20T11:08:07.813Z,4.00
2019-06-20T11:09:07.771Z,3.30
2019-06-20T11:10:07.740Z,4.90
2019-06-20T11:11:07.712Z,3.30
2019-06-20T11:12:07.716Z,2.80
2019-06-20T11:13:07.654Z,3.00
2019-06-20T11:14:07.618Z,3.30
2019-06-20T11:15:07.583Z,2.80
2019-06-20T11:16:07.560Z,3.20
2019-06-20T11:17:07.527Z,2.90
2019-06-20T11:18:07.517Z,3.60
2019-06-20T11:19:07.473Z,2.80
2019-06-20T11:20:07.439Z,3.40
2019-06-20T11:21:07.406Z,2.40
2019-06-20T11:22:07.376Z,5.60
2019-06-20T11:23:07.349Z,3.80
2019-06-20T11:24:07.314Z,2.60
2019-06-20T11:25:07.285Z,6.70
2019-06-20T11:26:07.257Z,3.50
2019-06-20T11:27:07.229Z,2.30
2019-06-20T11:28:07.207Z,3.00
2019-06-20T11:29:07.167Z,4.10
2019-06-20T11:30:07.138Z,3.60
2019-06-20T11:31:07.114Z,3.00
2019-06-20T11:32:07.074Z,2.90
2019-06-20T11:33:07.044Z,3.10
2019-06-20T11:34:07.015Z,3.20
2019-06-20T11:35:07.030Z,2.60
2019-06-20T11:36:06.960Z,4.20
2019-06-20T11:37:06.927Z,5.20
2019-06-20T11:38:06.894Z,3.10
2019-06-20T11:39:06.864Z,3.10
2019-06-20T11:40:06.841Z,4.80
2019-06-20T11:41:06.815Z,3.10
2019-06-20T11:42:06.778Z,4.20
2019-06-20T11:43:06.756Z,2.50
2019-06-20T11:44:06.712Z,3.00
2019-06-20T11:45:06.685Z,3.20
2019-06-20T11:46:06.657Z,2.50
2019-06-20T11:47:06.633Z,3.00
2019-06-20T11:48:06.598Z,2.60
2019-06-20T11:49:06.566Z,2.70
2019-06-20T11:50:06.537Z,3.10
2019-06-20T11:51:06.508Z,3.30
2019-06-20T11:52:06.471Z,2.60
2019-06-20T11:53:06.442Z,2.40
2019-06-20T11:54:06.415Z,3.40
2019-06-20T11:55:06.386Z,3.10
2019-06-20T11:56:06.356Z,2.90
2019-06-20T11:57:06.326Z,2.70
2019-06-20T11:58:06.292Z,2.60
2019-06-20T11:59:06.265Z,2.60
2019-06-20T12:00:06.237Z,2.40
2019-06-20T12:01:06.204Z,3.40
2019-06-20T12:02:06.174Z,3.60
2019-06-20T12:03:06.150Z,2.90
2019-06-20T12:04:08.705Z,3.10
2019-06-20T12:05:06.080Z,2.80
2019-06-20T12:06:06.052Z,2.70
2019-06-20T12:07:06.019Z,2.40
2019-06-20T12:08:05.996Z,2.60
2019-06-20T12:09:05.962Z,2.90
2019-06-20T12:10:05.932Z,5.30
2019-06-20T12:11:05.902Z,3.10
2019-06-20T12:12:05.873Z,2.30
2019-06-20T12:13:05.840Z,3.10
2019-06-20T12:14:05.810Z,3.20
2019-06-20T12:15:07.117Z,3.00
2019-06-20T12:16:05.748Z,2.80
2019-06-20T12:17:05.718Z,3.30
2019-06-20T12:18:05.690Z,4.70
2019-06-20T12:19:05.656Z,5.40
2019-06-20T12:20:05.630Z,5.30
2019-06-20T12:21:05.595Z,7.40
2019-06-20T12:22:05.567Z,5.10
2019-06-20T12:23:05.537Z,5.90
2019-06-20T12:24:08.359Z,6.40
2019-06-20T12:25:05.470Z,5.90
2019-06-20T12:26:05.443Z,6.20
2019-06-20T12:27:05.411Z,5.20
2019-06-20T12:28:05.385Z,5.70
2019-06-20T12:29:05.349Z,4.70
2019-06-20T12:30:05.314Z,4.10
2019-06-20T12:31:18.545Z,6.20
2019-06-20T12:32:05.255Z,5.60
2019-06-20T12:33:05.222Z,5.30
2019-06-20T12:34:05.190Z,6.20
2019-06-20T12:35:05.172Z,5.10
2019-06-20T12:36:05.123Z,6.90
2019-06-20T12:37:05.094Z,6.70
2019-06-20T12:38:05.062Z,4.40
2019-06-20T12:39:05.041Z,5.80
2019-06-20T12:40:05.001Z,6.20
2019-06-20T12:41:04.969Z,7.50
2019-06-20T12:42:04.937Z,6.10
2019-06-20T12:43:04.923Z,5.50
2019-06-20T12:44:04.874Z,5.20
2019-06-20T12:45:04.846Z,5.60
2019-06-20T12:46:04.811Z,6.30
2019-06-20T12:47:04.781Z,4.70
2019-06-20T12:48:04.744Z,5.30
2019-06-20T12:49:04.714Z,5.10
2019-06-20T12:50:04.693Z,4.30
2019-06-20T12:51:04.650Z,4.60
2019-06-20T12:52:04.624Z,6.50
2019-06-20T12:53:04.587Z,6.20
2019-06-20T12:54:04.557Z,5.20
2019-06-20T12:55:04.531Z,6.10
2019-06-20T12:56:04.503Z,5.70
2019-06-20T12:57:04.465Z,5.70
2019-06-20T12:58:04.434Z,6.90
2019-06-20T12:59:04.402Z,5.40
2019-06-20T13:00:04.364Z,6.60
2019-06-20T13:01:04.332Z,7.70
2019-06-20T13:02:04.301Z,6.90
2019-06-20T13:03:04.268Z,6.20
2019-06-20T13:04:04.242Z,5.30
2019-06-20T13:05:04.207Z,5.80
2019-06-20T13:06:04.174Z,7.50
2019-06-20T13:07:04.143Z,6.10
2019-06-20T13:08:04.108Z,7.40
2019-06-20T13:09:04.076Z,8.80
2019-06-20T13:10:04.043Z,8.20
2019-06-20T13:11:04.015Z,8.10
2019-06-20T13:12:03.994Z,8.80
2019-06-20T13:13:03.956Z,7.60
2019-06-20T13:14:03.920Z,8.70
2019-06-20T13:15:03.908Z,9.50
2019-06-20T13:16:03.853Z,7.40
2019-06-20T13:17:03.818Z,9.10
2019-06-20T13:18:03.785Z,10.30
2019-06-20T13:19:03.760Z,12.10
2019-06-20T13:20:03.745Z,14.50
2019-06-20T13:21:03.690Z,12.30
2019-06-20T13:22:03.667Z,9.50
2019-06-20T13:23:03.619Z,9.00
2019-06-20T13:24:03.594Z,8.40
2019-06-20T13:25:03.566Z,10.40
2019-06-20T13:26:03.526Z,9.10
2019-06-20T13:27:03.495Z,8.20
2019-06-20T13:28:03.457Z,10.20
2019-06-20T13:29:04.606Z,9.80
2019-06-20T13:30:03.396Z,9.20
2019-06-20T13:31:03.372Z,10.10
2019-06-20T13:32:04.543Z,10.20
2019-06-20T13:33:03.297Z,10.80
2019-06-20T13:34:03.262Z,10.00
2019-06-20T13:35:03.233Z,10.80
2019-06-20T13:36:03.200Z,11.40
2019-06-20T13:37:03.167Z,11.20
2019-06-20T13:38:03.133Z,10.30
2019-06-20T13:39:03.100Z,9.40
2019-06-20T13:40:03.078Z,9.70
2019-06-20T13:41:03.134Z,10.20
2019-06-20T13:42:03.018Z,9.70
2019-06-20T13:43:03.769Z,10.50
2019-06-20T13:44:02.950Z,11.20
2019-06-20T13:45:02.902Z,11.30
2019-06-20T13:46:02.875Z,11.00
2019-06-20T13:47:02.869Z,12.20
2019-06-20T13:48:02.804Z,11.00
2019-06-20T13:49:02.770Z,11.00
2019-06-20T13:50:02.744Z,11.70
2019-06-20T13:51:02.745Z,10.60
2019-06-20T13:52:02.676Z,11.50
2019-06-20T13:53:02.643Z,12.30
2019-06-20T13:54:02.613Z,10.40
2019-06-20T13:55:02.577Z,11.80
2019-06-20T13:56:02.586Z,10.00
2019-06-20T13:57:02.521Z,11.40
2019-06-20T13:58:02.473Z,12.10
2019-06-20T13:59:02.442Z,12.20
2019-06-20T14:00:02.412Z,12.90
2019-06-20T14:01:02.418Z,13.60
2019-06-20T14:02:06.526Z,14.10
2019-06-20T14:03:02.310Z,13.60
2019-06-20T14:04:02.306Z,16.30
2019-06-20T14:05:02.249Z,16.20
2019-06-20T14:06:02.215Z,13.70
2019-06-20T14:07:02.179Z,14.60
2019-06-20T14:08:02.145Z,15.30
2019-06-20T14:09:02.115Z,12.10
2019-06-20T14:10:02.075Z,12.60
2019-06-20T14:11:02.153Z,13.00
2019-06-20T14:12:02.034Z,12.20
2019-06-20T14:13:01.981Z,14.40
2019-06-20T14:14:01.952Z,12.10
2019-06-20T14:15:01.912Z,12.90
2019-06-20T14:16:01.877Z,12.20
2019-06-20T14:17:01.948Z,12.00
2019-06-20T14:18:01.851Z,14.30
2019-06-20T14:19:01.800Z,12.10
2019-06-20T14:20:01.878Z,13.30
2019-06-20T14:21:01.916Z,13.00
2019-06-20T14:22:01.673Z,13.00
2019-06-20T14:23:01.643Z,11.90
2019-06-20T14:24:01.613Z,12.70
2019-06-20T14:25:01.580Z,11.00
2019-06-20T14:26:01.544Z,10.10
2019-06-20T14:27:02.412Z,11.90
2019-06-20T14:28:01.474Z,11.40
2019-06-20T14:29:01.454Z,12.70
2019-06-20T14:30:01.430Z,11.40
2019-06-20T14:31:01.453Z,10.90
2019-06-20T14:32:01.343Z,11.50
2019-06-20T14:33:01.312Z,10.20
2019-06-20T14:34:01.272Z,11.30
2019-06-20T14:35:01.243Z,10.70
2019-06-20T14:36:01.214Z,12.00
2019-06-20T14:37:01.190Z,11.80
2019-06-20T14:38:01.145Z,13.00
2019-06-20T14:39:01.111Z,10.60
2019-06-20T14:40:01.073Z,11.00
2019-06-20T14:41:01.297Z,9.70
2019-06-20T14:42:01.005Z,9.80
2019-06-20T14:43:00.973Z,12.00
2019-06-20T14:44:00.953Z,9.20
2019-06-20T14:45:00.907Z,10.00
2019-06-20T14:46:00.875Z,9.60
2019-06-20T14:47:00.840Z,9.70
2019-06-20T14:48:00.808Z,8.60
2019-06-20T14:49:00.768Z,8.20
2019-06-20T14:50:00.741Z,10.00
2019-06-20T14:51:00.733Z,7.80
2019-06-20T14:52:00.693Z,8.70
2019-06-20T14:53:00.664Z,10.00
2019-06-20T14:54:00.603Z,8.90
2019-06-20T14:55:00.577Z,8.60
2019-06-20T14:56:00.541Z,8.80
2019-06-20T14:57:00.508Z,8.30
2019-06-20T14:58:00.474Z,8.10
2019-06-20T14:59:00.445Z,7.60
2019-06-20T15:00:00.406Z,9.20
2019-06-20T15:01:00.403Z,7.00
2019-06-20T15:02:00.413Z,9.30
2019-06-20T15:03:00.306Z,7.50
2019-06-20T15:04:00.273Z,8.30
2019-06-20T15:05:00.244Z,6.50
2019-06-20T15:06:00.210Z,9.00
2019-06-20T15:07:00.176Z,7.00
2019-06-20T15:08:00.143Z,6.50
2019-06-20T15:09:05.566Z,6.60
2019-06-20T15:10:00.078Z,6.50
2019-06-20T15:11:00.239Z,6.70
2019-06-20T15:12:00.009Z,6.40
2019-06-20T15:12:59.974Z,4.50
2019-06-20T15:13:59.941Z,5.00
2019-06-20T15:14:59.908Z,6.90
2019-06-20T15:15:59.887Z,5.00
2019-06-20T15:16:59.846Z,5.90
2019-06-20T15:17:59.814Z,4.90
2019-06-20T15:18:59.780Z,4.70
2019-06-20T15:19:59.747Z,4.40
2019-06-20T15:20:59.730Z,4.20
2019-06-20T15:21:59.683Z,4.20
2019-06-20T15:22:59.648Z,4.60
2019-06-20T15:23:59.618Z,6.00
2019-06-20T15:24:59.587Z,5.30
2019-06-20T15:25:59.560Z,5.80
2019-06-20T15:26:59.625Z,6.30
2019-06-20T15:27:59.541Z,4.70
2019-06-20T15:28:59.455Z,4.80
2019-06-20T15:29:59.422Z,5.20
2019-06-20T15:30:59.893Z,4.90
2019-06-20T15:31:59.352Z,6.00
2019-06-20T15:33:09.733Z,6.10
2019-06-20T15:33:59.288Z,4.70
2019-06-20T15:35:01.762Z,7.00
2019-06-20T15:35:59.238Z,4.70
2019-06-20T15:36:59.192Z,5.70
2019-06-20T15:37:59.154Z,7.30
2019-06-20T15:38:59.124Z,7.90
2019-06-20T15:39:59.098Z,7.00
2019-06-20T15:40:59.064Z,6.50
2019-06-20T15:41:59.031Z,6.10
2019-06-20T15:42:59.055Z,6.80
2019-06-20T15:43:58.963Z,6.00
2019-06-20T15:44:58.929Z,7.60
2019-06-20T15:46:08.229Z,6.30
2019-06-20T15:48:03.934Z,6.50
2019-06-20T15:49:15.432Z,5.40
2019-06-20T15:50:03.479Z,6.00
2019-06-20T15:51:03.844Z,6.40
2019-06-20T15:52:03.419Z,6.50
2019-06-20T15:53:03.393Z,6.20
2019-06-20T15:54:03.416Z,6.90
2019-06-20T15:55:03.316Z,5.90
2019-06-20T15:56:03.287Z,5.40
2019-06-20T15:57:03.275Z,6.70
2019-06-20T15:58:03.218Z,7.20
2019-06-20T15:59:03.190Z,6.50
2019-06-20T16:00:03.155Z,6.90
2019-06-20T16:01:03.126Z,6.80
2019-06-20T16:02:03.096Z,6.30
2019-06-20T16:03:09.869Z,5.40
2019-06-20T16:04:03.026Z,5.90
2019-06-20T16:05:02.992Z,5.60
2019-06-20T16:06:02.967Z,6.40
2019-06-20T16:07:02.931Z,6.50
2019-06-20T16:08:02.927Z,6.20
2019-06-20T16:09:02.896Z,6.80
2019-06-20T16:10:02.829Z,6.50
2019-06-20T16:11:02.803Z,6.50
2019-06-20T16:12:02.789Z,6.70
2019-06-20T16:13:02.738Z,6.40
2019-06-20T16:14:02.709Z,8.00
2019-06-20T16:15:02.676Z,6.20
2019-06-20T16:16:02.640Z,6.70
2019-06-20T16:17:02.621Z,8.00
2019-06-20T16:18:02.649Z,6.10
2019-06-20T16:19:02.548Z,6.00
2019-06-20T16:20:02.548Z,8.00
2019-06-20T16:21:02.481Z,7.50
2019-06-20T16:22:02.454Z,5.20
2019-06-20T16:23:02.415Z,5.10
2019-06-20T16:24:02.406Z,8.00
2019-06-20T16:25:02.354Z,6.40
2019-06-20T16:26:02.321Z,7.90
2019-06-20T16:27:02.284Z,5.00
2019-06-20T16:28:02.256Z,5.50
2019-06-20T16:29:02.223Z,5.30
2019-06-20T16:30:02.193Z,5.40
2019-06-20T16:31:08.746Z,7.20
2019-06-20T16:32:02.129Z,5.80
2019-06-20T16:33:02.098Z,5.80
2019-06-20T16:34:02.067Z,7.40
2019-06-20T16:35:02.038Z,8.10
2019-06-20T16:36:02.002Z,8.60
2019-06-20T16:37:09.956Z,6.60
2019-06-20T16:38:01.931Z,5.90
2019-06-20T16:39:01.966Z,6.90
2019-06-20T16:40:01.873Z,7.40
2019-06-20T16:41:01.870Z,7.30
2019-06-20T16:42:01.806Z,6.10
2019-06-20T16:43:01.777Z,5.50
2019-06-20T16:44:01.767Z,5.60
2019-06-20T16:45:01.715Z,6.80
2019-06-20T16:46:01.681Z,6.40
2019-06-20T16:47:01.646Z,6.50
2019-06-20T16:48:01.629Z,8.30
2019-06-20T16:49:01.582Z,9.00
2019-06-20T16:50:01.550Z,7.90
2019-06-20T16:51:01.522Z,6.90
2019-06-20T16:52:01.488Z,7.50
2019-06-20T16:53:01.457Z,7.90
2019-06-20T16:54:01.425Z,5.50
2019-06-20T16:55:01.392Z,5.20
2019-06-20T16:56:01.361Z,6.80
2019-06-20T16:57:01.329Z,5.00
2019-06-20T16:58:01.297Z,5.40
2019-06-20T16:59:01.268Z,6.00
2019-06-20T17:00:01.231Z,5.40
2019-06-20T17:01:01.202Z,7.00
2019-06-20T17:02:01.165Z,6.30
2019-06-20T17:03:01.222Z,5.10
2019-06-20T17:04:01.105Z,6.40
2019-06-20T17:05:01.075Z,5.40
2019-06-20T17:06:01.044Z,5.40
2019-06-20T17:07:01.024Z,6.60
2019-06-20T17:08:00.978Z,5.30
2019-06-20T17:09:00.946Z,5.10